createdAt,value
2022-10-11T00:01:59.967Z,99.03
2022-10-11T00:04:26.519Z,98.95
2022-10-11T00:06:53.026Z,99.17
2022-10-11T00:09:19.557Z,99.17
2022-10-11T00:11:46.090Z,99.21
2022-10-11T00:14:12.649Z,99.05
2022-10-11T00:16:40.505Z,99.66
2022-10-11T00:19:07.047Z,99.44
2022-10-11T00:21:33.597Z,99.37
2022-10-11T00:24:00.113Z,99.29
2022-10-11T00:26:26.655Z,99.50
2022-10-11T00:28:53.256Z,99.58
2022-10-11T00:31:19.980Z,99.26
2022-10-11T00:33:47.912Z,99.50
2022-10-11T00:36:14.633Z,99.24
2022-10-11T00:38:41.551Z,99.06
2022-10-11T00:41:08.100Z,99.64
2022-10-11T00:43:34.768Z,99.81
2022-10-11T00:46:24.806Z,100.00
2022-10-11T00:48:58.389Z,99.68
2022-10-11T00:51:34.803Z,99.74
2022-10-11T00:54:02.475Z,100.00
2022-10-11T00:56:33.151Z,100.00
2022-10-11T00:59:02.454Z,100.00
2022-10-11T01:01:29.072Z,100.00
2022-10-11T01:03:57.350Z,100.00
2022-10-11T01:06:24.091Z,100.00
2022-10-11T01:08:51.977Z,100.00
2022-10-11T01:11:22.955Z,100.00
2022-10-11T01:14:07.587Z,100.00
2022-10-11T01:16:37.924Z,100.00
2022-10-11T01:19:21.724Z,100.00
2022-10-11T01:21:52.905Z,100.00
2022-10-11T01:24:55.208Z,100.00
2022-10-11T01:27:48.395Z,100.00
2022-10-11T01:30:24.233Z,100.00
2022-10-11T01:33:02.798Z,100.00
2022-10-11T01:35:38.259Z,100.00
2022-10-11T01:38:11.353Z,100.00
2022-10-11T01:40:42.916Z,100.00
2022-10-11T01:43:10.243Z,100.00
2022-10-11T01:45:38.423Z,100.00
2022-10-11T01:48:07.492Z,100.00
2022-10-11T01:50:39.436Z,100.00
2022-10-11T01:53:12.656Z,100.00
2022-10-11T01:55:47.200Z,100.00
2022-10-11T01:58:22.683Z,100.00
2022-10-11T02:00:58.006Z,100.00
2022-10-11T02:03:33.674Z,100.00
2022-10-11T02:06:08.784Z,100.00
2022-10-11T02:08:41.908Z,100.00
2022-10-11T02:11:16.089Z,100.00
2022-10-11T02:13:47.092Z,100.00
2022-10-11T02:16:20.586Z,100.00
2022-10-11T02:18:50.228Z,100.00
2022-10-11T02:21:20.651Z,100.00
2022-10-11T02:23:51.078Z,100.00
2022-10-11T02:26:21.725Z,100.00
2022-10-11T02:28:51.129Z,100.00
2022-10-11T02:31:20.472Z,100.00
2022-10-11T02:33:52.442Z,100.00
2022-10-11T02:36:22.524Z,100.00
2022-10-11T02:38:54.693Z,100.00
2022-10-11T02:41:25.522Z,100.00
2022-10-11T02:43:55.907Z,100.00
2022-10-11T02:46:25.041Z,100.00
2022-10-11T02:48:52.090Z,100.00
2022-10-11T02:51:18.640Z,100.00
2022-10-11T02:53:45.164Z,100.00
2022-10-11T02:56:11.658Z,100.00
2022-10-11T02:58:38.178Z,100.00
2022-10-11T03:01:04.816Z,99.85
2022-10-11T03:03:32.710Z,99.87
2022-10-11T03:06:00.083Z,99.97
2022-10-11T03:08:26.755Z,99.94
2022-10-11T03:10:53.340Z,99.91
2022-10-11T03:13:19.921Z,99.93
2022-10-11T03:15:49.366Z,100.00
2022-10-11T03:18:16.079Z,100.00
2022-10-11T03:20:44.174Z,100.00
2022-10-11T03:23:11.045Z,99.58
2022-10-11T03:25:37.625Z,99.92
2022-10-11T03:28:04.579Z,99.81
2022-10-11T03:30:31.147Z,99.71
2022-10-11T03:32:57.927Z,99.83
2022-10-11T03:35:24.466Z,99.40
2022-10-11T03:37:52.410Z,99.23
2022-10-11T03:40:18.980Z,99.35
2022-10-11T03:42:45.519Z,98.96
2022-10-11T03:45:12.087Z,99.09
2022-10-11T03:47:39.780Z,98.96
2022-10-11T03:50:07.855Z,98.84
2022-10-11T03:52:34.519Z,98.73
2022-10-11T03:55:02.498Z,98.68
2022-10-11T03:57:29.063Z,98.59
2022-10-11T03:59:55.614Z,98.83
2022-10-11T04:02:22.156Z,98.67
2022-10-11T04:04:48.765Z,98.89
2022-10-11T04:07:15.323Z,98.98
2022-10-11T04:09:41.908Z,99.27
2022-10-11T04:12:09.786Z,99.08
2022-10-11T04:14:36.335Z,99.30
2022-10-11T04:17:02.861Z,99.27
2022-10-11T04:19:29.411Z,99.73
2022-10-11T04:21:55.984Z,99.34
2022-10-11T04:24:22.572Z,99.19
2022-10-11T04:26:49.112Z,99.32
2022-10-11T04:29:17.039Z,99.27
2022-10-11T04:31:43.589Z,98.99
2022-10-11T04:34:10.139Z,98.89
2022-10-11T04:36:36.706Z,98.69
2022-10-11T04:39:03.348Z,98.81
2022-10-11T04:41:29.890Z,99.09
2022-10-11T04:43:56.624Z,98.91
2022-10-11T04:46:24.798Z,98.56
2022-10-11T04:48:51.574Z,98.96
2022-10-11T04:51:18.802Z,98.96
2022-10-11T04:53:45.333Z,98.80
2022-10-11T04:56:11.982Z,99.24
2022-10-11T04:58:39.043Z,99.36
2022-10-11T05:01:05.580Z,99.27
2022-10-11T05:03:33.815Z,99.21
2022-10-11T05:06:04.656Z,99.44
2022-10-11T05:08:32.503Z,99.47
2022-10-11T05:11:01.131Z,99.56
2022-10-11T05:13:28.800Z,99.53
2022-10-11T05:15:55.732Z,99.62
2022-10-11T05:18:22.856Z,99.73
2022-10-11T05:20:58.695Z,100.00
2022-10-11T05:23:25.228Z,100.00
2022-10-11T05:25:51.754Z,100.00
2022-10-11T05:28:18.329Z,99.84
2022-10-11T05:30:44.911Z,99.80
2022-10-11T05:33:11.693Z,99.72
2022-10-11T05:35:38.241Z,99.60
2022-10-11T05:38:06.124Z,99.76
2022-10-11T05:40:32.666Z,100.00
2022-10-11T05:42:59.256Z,100.00
2022-10-11T05:45:25.801Z,99.99
2022-10-11T05:47:52.347Z,99.96
2022-10-11T05:50:24.028Z,99.99
2022-10-11T05:52:50.974Z,99.90
2022-10-11T05:55:18.856Z,99.82
2022-10-11T05:57:45.414Z,99.79
2022-10-11T06:00:12.690Z,99.96
2022-10-11T06:02:39.314Z,100.00
2022-10-11T06:05:06.274Z,100.00
2022-10-11T06:07:35.187Z,100.00
2022-10-11T06:10:01.754Z,100.00
2022-10-11T06:12:30.323Z,100.00
2022-10-11T06:14:57.565Z,100.00
2022-10-11T06:17:24.147Z,99.81
2022-10-11T06:19:50.711Z,99.64
2022-10-11T06:22:17.399Z,99.65
2022-10-11T06:24:44.153Z,99.52
2022-10-11T06:27:10.695Z,99.19
2022-10-11T06:29:38.639Z,99.13
2022-10-11T06:32:05.504Z,98.95
2022-10-11T06:34:32.069Z,98.25
2022-10-11T06:36:58.613Z,98.17
2022-10-11T06:39:25.136Z,97.83
2022-10-11T06:41:51.655Z,98.04
2022-10-11T06:44:18.190Z,98.43
2022-10-11T06:46:46.060Z,98.69
2022-10-11T06:49:12.682Z,97.92
2022-10-11T06:51:39.212Z,98.14
2022-10-11T06:54:05.898Z,97.61
2022-10-11T06:56:32.430Z,98.24
2022-10-11T06:58:59.836Z,98.37
2022-10-11T07:01:27.213Z,98.46
2022-10-11T07:03:57.499Z,98.79
2022-10-11T07:06:26.386Z,98.89
2022-10-11T07:08:53.356Z,98.70
2022-10-11T07:11:21.990Z,98.66
2022-10-11T07:13:50.045Z,98.68
2022-10-11T07:16:16.632Z,98.31
2022-10-11T07:18:43.266Z,98.49
2022-10-11T07:21:15.035Z,98.11
2022-10-11T07:23:42.565Z,98.06
2022-10-11T07:26:11.066Z,98.32
2022-10-11T07:28:39.040Z,98.03
2022-10-11T07:31:06.996Z,97.28
2022-10-11T07:33:33.998Z,97.30
2022-10-11T07:36:00.597Z,97.03
2022-10-11T07:38:28.517Z,97.38
2022-10-11T07:40:55.169Z,97.19
2022-10-11T07:43:21.680Z,97.38
2022-10-11T07:45:51.297Z,97.22
2022-10-11T07:48:17.803Z,97.05
2022-10-11T07:50:44.361Z,96.92
2022-10-11T07:53:10.912Z,97.01
2022-10-11T07:55:39.132Z,97.37
2022-10-11T07:58:06.474Z,97.18
2022-10-11T08:00:33.414Z,97.14
2022-10-11T08:03:01.967Z,96.63
2022-10-11T08:05:29.058Z,96.29
2022-10-11T08:07:55.615Z,95.95
2022-10-11T08:10:22.267Z,95.74
2022-10-11T08:12:50.219Z,95.72
2022-10-11T08:15:17.066Z,95.66
2022-10-11T08:17:43.661Z,96.34
2022-10-11T08:20:10.589Z,97.04
2022-10-11T08:22:37.149Z,96.83
2022-10-11T08:25:04.303Z,96.10
2022-10-11T08:27:30.830Z,95.51
2022-10-11T08:29:58.698Z,95.34
2022-10-11T08:32:25.250Z,94.82
2022-10-11T08:34:51.796Z,94.43
2022-10-11T08:37:18.320Z,94.07
2022-10-11T08:39:44.874Z,93.11
2022-10-11T08:42:15.134Z,93.09
2022-10-11T08:45:09.515Z,91.88
2022-10-11T08:47:37.461Z,91.28
2022-10-11T08:50:05.015Z,91.15
2022-10-11T08:52:44.706Z,91.03
2022-10-11T08:55:19.114Z,90.52
2022-10-11T08:57:51.915Z,90.76
2022-10-11T09:00:19.912Z,90.65
2022-10-11T09:03:08.023Z,90.35
2022-10-11T09:05:39.442Z,89.31
2022-10-11T09:08:11.741Z,89.31
2022-10-11T09:10:53.306Z,89.65
2022-10-11T09:13:30.762Z,88.69
2022-10-11T09:16:09.323Z,88.51
2022-10-11T09:18:52.922Z,89.63
2022-10-11T09:21:32.283Z,88.97
2022-10-11T09:24:13.095Z,90.93
2022-10-11T09:26:47.659Z,89.46
2022-10-11T09:29:21.548Z,89.33
2022-10-11T09:31:52.115Z,88.94
2022-10-11T09:34:23.485Z,88.93
2022-10-11T09:36:54.951Z,88.40
2022-10-11T09:39:29.047Z,87.99
2022-10-11T09:42:00.265Z,87.56
2022-10-11T09:44:29.223Z,86.95
2022-10-11T09:46:57.258Z,87.81
2022-10-11T09:49:31.804Z,86.83
2022-10-11T09:52:01.870Z,86.47
2022-10-11T09:54:39.919Z,87.41
2022-10-11T09:57:06.679Z,86.77
2022-10-11T09:59:34.682Z,85.73
2022-10-11T10:02:21.656Z,85.86
2022-10-11T10:05:01.867Z,86.02
2022-10-11T10:07:29.917Z,85.50
2022-10-11T10:09:56.728Z,84.37
2022-10-11T10:12:26.993Z,83.28
2022-10-11T10:15:04.979Z,81.34
2022-10-11T10:17:32.219Z,81.46
2022-10-11T10:20:00.334Z,80.76
2022-10-11T10:22:29.381Z,80.47
2022-10-11T10:24:58.092Z,79.55
2022-10-11T10:27:26.261Z,78.46
2022-10-11T10:30:12.975Z,78.07
2022-10-11T10:32:48.673Z,77.00
2022-10-11T10:35:26.859Z,75.36
2022-10-11T10:38:03.719Z,76.39
2022-10-11T10:40:39.442Z,73.83
2022-10-11T10:43:06.182Z,73.74
2022-10-11T10:45:42.750Z,76.82
2022-10-11T10:48:19.843Z,77.15
2022-10-11T10:50:55.726Z,75.78
2022-10-11T10:53:29.434Z,76.46
2022-10-11T10:56:05.850Z,75.65
2022-10-11T10:58:55.440Z,76.86
2022-10-11T11:01:26.411Z,77.47
2022-10-11T11:04:00.078Z,77.85
2022-10-11T11:06:37.007Z,77.65
2022-10-11T11:09:20.671Z,77.19
2022-10-11T11:11:59.339Z,75.93
2022-10-11T11:14:39.958Z,76.38
2022-10-11T11:17:18.766Z,76.44
2022-10-11T11:19:59.712Z,75.69
2022-10-11T11:22:37.567Z,76.18
2022-10-11T11:25:17.478Z,75.54
2022-10-11T11:27:55.524Z,75.47
2022-10-11T11:30:24.523Z,75.54
2022-10-11T11:33:03.926Z,76.78
2022-10-11T11:35:37.178Z,76.11
2022-10-11T11:38:13.989Z,76.18
2022-10-11T11:40:43.694Z,76.10
2022-10-11T11:43:18.606Z,77.54
2022-10-11T11:45:48.431Z,78.05
2022-10-11T11:48:19.027Z,78.51
2022-10-11T11:50:51.251Z,76.14
2022-10-11T11:53:23.434Z,75.15
2022-10-11T11:55:57.183Z,75.18
2022-10-11T11:58:34.471Z,74.57
2022-10-11T12:01:07.837Z,74.82
2022-10-11T12:03:41.787Z,78.64
2022-10-11T12:06:29.117Z,79.48
2022-10-11T12:09:02.218Z,79.84
2022-10-11T12:11:38.453Z,79.26
2022-10-11T12:14:16.982Z,77.47
2022-10-11T12:17:12.761Z,78.21
2022-10-11T12:19:41.852Z,78.76
2022-10-11T12:22:35.495Z,77.89
2022-10-11T12:25:32.690Z,78.08
2022-10-11T12:28:02.235Z,78.38
2022-10-11T12:30:51.773Z,77.97
2022-10-11T12:33:21.277Z,77.92
2022-10-11T12:35:57.063Z,77.78
2022-10-11T12:38:25.343Z,77.73
2022-10-11T12:40:54.526Z,77.42
2022-10-11T12:43:29.014Z,76.59
2022-10-11T12:45:55.624Z,76.16
2022-10-11T12:48:47.377Z,75.58
2022-10-11T12:51:29.379Z,77.04
2022-10-11T12:54:38.249Z,77.25
2022-10-11T12:57:33.574Z,76.45
2022-10-11T13:00:17.020Z,76.07
2022-10-11T13:02:44.357Z,76.02
2022-10-11T13:05:20.247Z,75.98
2022-10-11T13:07:47.120Z,75.56
2022-10-11T13:10:15.242Z,75.01
2022-10-11T13:12:46.759Z,75.16
2022-10-11T13:15:16.430Z,75.02
2022-10-11T13:17:43.334Z,75.98
2022-10-11T13:20:17.573Z,78.41
2022-10-11T13:22:45.998Z,77.19
2022-10-11T13:25:16.932Z,76.39
2022-10-11T13:27:45.470Z,76.13
2022-10-11T13:30:18.997Z,76.05
2022-10-11T13:32:46.020Z,77.14
2022-10-11T13:35:21.001Z,77.28
2022-10-11T13:37:50.560Z,77.91
2022-10-11T13:40:19.504Z,77.72
2022-10-11T13:42:49.176Z,74.60
2022-10-11T13:45:18.895Z,75.06
2022-10-11T13:47:46.907Z,74.67
2022-10-11T13:50:21.911Z,73.74
2022-10-11T13:52:53.987Z,73.28
2022-10-11T13:55:26.533Z,74.72
2022-10-11T13:57:55.119Z,74.21
2022-10-11T14:00:29.483Z,74.02
2022-10-11T14:03:00.106Z,76.09
2022-10-11T14:05:31.379Z,77.78
2022-10-11T14:08:00.673Z,74.59
2022-10-11T14:10:27.689Z,74.73
2022-10-11T14:13:02.174Z,75.69
2022-10-11T14:15:30.766Z,75.56
2022-10-11T14:17:58.443Z,75.85
2022-10-11T14:20:33.433Z,77.11
2022-10-11T14:23:00.043Z,77.17
2022-10-11T14:25:26.660Z,76.85
2022-10-11T14:27:53.211Z,75.84
2022-10-11T14:30:26.418Z,75.58
2022-10-11T14:32:55.338Z,75.28
2022-10-11T14:35:24.294Z,74.91
2022-10-11T14:37:51.619Z,74.30
2022-10-11T14:40:20.288Z,75.29
2022-10-11T14:42:47.249Z,74.17
2022-10-11T14:45:13.870Z,74.26
2022-10-11T14:47:43.132Z,76.03
2022-10-11T14:50:30.085Z,76.43
2022-10-11T14:52:56.927Z,77.43
2022-10-11T14:55:23.937Z,77.27
2022-10-11T14:57:50.514Z,79.32
2022-10-11T15:00:20.755Z,80.71
2022-10-11T15:02:48.704Z,80.79
2022-10-11T15:05:15.264Z,80.45
2022-10-11T15:07:41.824Z,78.21
2022-10-11T15:10:18.745Z,78.17
2022-10-11T15:12:45.492Z,79.85
2022-10-11T15:15:16.125Z,80.11
2022-10-11T15:17:43.392Z,82.37
2022-10-11T15:20:20.389Z,82.66
2022-10-11T15:22:47.067Z,80.95
2022-10-11T15:25:13.902Z,83.22
2022-10-11T15:27:40.461Z,84.03
2022-10-11T15:30:13.335Z,83.82
2022-10-11T15:32:39.910Z,83.90
2022-10-11T15:35:06.950Z,84.84
2022-10-11T15:37:37.370Z,85.37
2022-10-11T15:40:15.670Z,84.71
2022-10-11T15:42:42.581Z,85.46
2022-10-11T15:45:09.695Z,85.44
2022-10-11T15:47:36.241Z,86.05
2022-10-11T15:50:03.345Z,86.67
2022-10-11T15:52:29.890Z,87.37
2022-10-11T15:54:57.755Z,87.92
2022-10-11T15:57:24.311Z,87.54
2022-10-11T15:59:50.880Z,87.11
2022-10-11T16:02:17.422Z,86.99
2022-10-11T16:04:43.939Z,87.06
2022-10-11T16:07:10.473Z,87.43
2022-10-11T16:09:37.004Z,87.82
2022-10-11T16:12:05.279Z,87.92
2022-10-11T16:14:31.849Z,88.01
2022-10-11T16:17:01.043Z,88.06
2022-10-11T16:19:27.585Z,87.70
2022-10-11T16:21:54.127Z,87.71
2022-10-11T16:24:20.695Z,88.06
2022-10-11T16:26:47.414Z,88.50
2022-10-11T16:29:15.411Z,88.07
2022-10-11T16:31:41.918Z,87.89
2022-10-11T16:34:08.458Z,87.86
2022-10-11T16:36:35.006Z,87.34
2022-10-11T16:39:04.531Z,87.21
2022-10-11T16:41:31.086Z,87.19
2022-10-11T16:43:57.663Z,87.10
2022-10-11T16:46:25.542Z,87.09
2022-10-11T16:48:54.899Z,86.87
2022-10-11T16:51:21.603Z,88.10
2022-10-11T16:53:48.161Z,88.14
2022-10-11T16:56:14.686Z,87.98
2022-10-11T16:58:41.393Z,89.04
2022-10-11T17:01:09.991Z,89.02
2022-10-11T17:03:38.724Z,88.90
2022-10-11T17:06:06.362Z,89.19
2022-10-11T17:08:33.247Z,89.56
2022-10-11T17:10:59.812Z,90.49
2022-10-11T17:13:26.765Z,90.80
2022-10-11T17:15:53.282Z,90.24
2022-10-11T17:18:19.846Z,90.63
2022-10-11T17:20:47.725Z,91.18
2022-10-11T17:23:14.371Z,92.00
2022-10-11T17:25:41.993Z,92.61
2022-10-11T17:28:08.663Z,91.66
2022-10-11T17:30:35.398Z,92.38
2022-10-11T17:33:01.938Z,92.98
2022-10-11T17:35:31.139Z,93.30
2022-10-11T17:38:02.440Z,93.48
2022-10-11T17:40:32.423Z,93.00
2022-10-11T17:42:58.973Z,92.94
2022-10-11T17:45:25.601Z,93.41
2022-10-11T17:47:52.120Z,93.61
2022-10-11T17:50:18.668Z,93.80
2022-10-11T17:52:45.275Z,93.79
2022-10-11T17:55:13.223Z,94.46
2022-10-11T17:57:39.752Z,94.94
2022-10-11T18:00:07.501Z,94.92
2022-10-11T18:02:34.049Z,94.56
2022-10-11T18:05:00.570Z,94.48
2022-10-11T18:07:27.085Z,94.58
2022-10-11T18:09:53.631Z,94.30
2022-10-11T18:12:21.537Z,94.40
2022-10-11T18:14:48.071Z,94.23
2022-10-11T18:17:14.697Z,94.06
2022-10-11T18:19:41.253Z,94.12
2022-10-11T18:22:07.787Z,94.13
2022-10-11T18:24:34.715Z,94.09
2022-10-11T18:27:01.311Z,94.67
2022-10-11T18:29:29.192Z,94.34
2022-10-11T18:31:55.733Z,94.47
2022-10-11T18:34:22.278Z,94.80
2022-10-11T18:36:48.822Z,95.20
2022-10-11T18:39:15.412Z,95.08
2022-10-11T18:41:42.982Z,95.15
2022-10-11T18:44:13.408Z,95.38
2022-10-11T18:46:41.487Z,95.23
2022-10-11T18:49:08.237Z,95.27
2022-10-11T18:51:36.615Z,95.13
2022-10-11T18:54:04.500Z,95.55
2022-10-11T18:56:32.868Z,97.24
2022-10-11T18:58:59.528Z,97.08
2022-10-11T19:01:28.522Z,96.83
2022-10-11T19:03:58.592Z,96.35
2022-10-11T19:06:28.453Z,96.88
2022-10-11T19:08:59.027Z,96.82
2022-10-11T19:11:25.586Z,96.45
2022-10-11T19:13:55.595Z,96.37
2022-10-11T19:16:22.549Z,96.14
2022-10-11T19:18:49.775Z,96.04
2022-10-11T19:21:18.281Z,96.02
2022-10-11T19:23:46.633Z,96.11
2022-10-11T19:26:15.285Z,95.48
2022-10-11T19:28:42.415Z,95.66
2022-10-11T19:31:10.868Z,95.07
2022-10-11T19:33:37.634Z,95.43
2022-10-11T19:36:05.962Z,95.67
2022-10-11T19:38:35.438Z,95.78
2022-10-11T19:41:02.761Z,96.00
2022-10-11T19:43:29.432Z,95.79
2022-10-11T19:45:59.842Z,95.69
2022-10-11T19:48:26.453Z,95.78
2022-10-11T19:50:53.022Z,96.29
2022-10-11T19:53:19.578Z,96.62
2022-10-11T19:55:47.507Z,98.06
2022-10-11T19:58:14.062Z,98.49
2022-10-11T20:00:40.621Z,97.85
2022-10-11T20:03:07.197Z,97.54
2022-10-11T20:05:36.571Z,97.40
2022-10-11T20:08:03.463Z,98.41
2022-10-11T20:10:30.012Z,98.05
2022-10-11T20:12:58.028Z,97.72
2022-10-11T20:15:24.723Z,97.70
2022-10-11T20:17:51.289Z,97.40
2022-10-11T20:20:18.774Z,96.30
2022-10-11T20:22:45.351Z,96.43
2022-10-11T20:25:12.028Z,96.34
2022-10-11T20:27:39.234Z,95.85
2022-10-11T20:30:07.955Z,95.97
2022-10-11T20:32:34.533Z,95.07
2022-10-11T20:35:01.097Z,94.93
2022-10-11T20:37:27.624Z,95.07
2022-10-11T20:39:54.179Z,95.49
2022-10-11T20:42:20.764Z,95.60
2022-10-11T20:44:47.381Z,95.75
2022-10-11T20:47:15.508Z,95.59
2022-10-11T20:49:42.037Z,95.13
2022-10-11T20:52:08.598Z,94.58
2022-10-11T20:54:35.174Z,94.72
2022-10-11T20:57:01.703Z,94.56
2022-10-11T20:59:28.262Z,94.38
2022-10-11T21:01:54.779Z,94.79
2022-10-11T21:04:22.718Z,93.92
2022-10-11T21:06:49.502Z,93.51
2022-10-11T21:09:16.841Z,93.42
2022-10-11T21:11:44.331Z,93.41
2022-10-11T21:14:11.043Z,93.93
2022-10-11T21:16:37.618Z,93.70
2022-10-11T21:19:04.291Z,93.74
2022-10-11T21:21:32.201Z,93.91
2022-10-11T21:24:00.436Z,93.90
2022-10-11T21:26:27.508Z,94.08
2022-10-11T21:28:54.289Z,94.31
2022-10-11T21:31:21.926Z,94.12
2022-10-11T21:33:49.036Z,94.12
2022-10-11T21:36:17.407Z,94.77
2022-10-11T21:38:46.007Z,95.15
2022-10-11T21:41:14.326Z,95.12
2022-10-11T21:43:41.359Z,95.17
2022-10-11T21:46:09.652Z,95.73
2022-10-11T21:48:36.419Z,96.34
2022-10-11T21:51:03.108Z,96.69
2022-10-11T21:53:29.844Z,97.60
2022-10-11T21:55:58.276Z,98.48
2022-10-11T21:58:24.927Z,99.58
2022-10-11T22:00:51.488Z,99.31
2022-10-11T22:03:18.050Z,99.37
2022-10-11T22:05:45.384Z,99.59
2022-10-11T22:08:12.198Z,99.15
2022-10-11T22:10:38.777Z,99.37
2022-10-11T22:13:06.926Z,99.78
2022-10-11T22:15:33.703Z,99.93
2022-10-11T22:18:00.303Z,100.00
2022-10-11T22:20:27.269Z,100.00
2022-10-11T22:22:53.815Z,100.00
2022-10-11T22:25:20.777Z,100.00
2022-10-11T22:27:47.351Z,100.00
2022-10-11T22:30:15.365Z,100.00
2022-10-11T22:32:41.906Z,100.00
2022-10-11T22:35:08.611Z,100.00
2022-10-11T22:37:35.276Z,100.00
2022-10-11T22:40:02.189Z,99.74
2022-10-11T22:42:29.011Z,99.27
2022-10-11T22:44:55.754Z,98.40
2022-10-11T22:47:23.747Z,98.15
2022-10-11T22:49:50.308Z,98.51
2022-10-11T22:52:16.879Z,98.27
2022-10-11T22:54:43.478Z,97.83
2022-10-11T22:57:10.023Z,97.90
2022-10-11T22:59:36.591Z,97.99
2022-10-11T23:02:03.140Z,98.10
2022-10-11T23:04:31.061Z,97.89
2022-10-11T23:07:01.301Z,98.24
2022-10-11T23:09:31.283Z,97.98
2022-10-11T23:11:57.977Z,97.98
2022-10-11T23:14:24.574Z,97.86
2022-10-11T23:16:51.542Z,97.71
2022-10-11T23:19:18.151Z,97.78
2022-10-11T23:21:46.567Z,97.07
2022-10-11T23:24:13.335Z,96.81
2022-10-11T23:26:39.910Z,97.02
2022-10-11T23:29:06.475Z,97.16
2022-10-11T23:31:33.015Z,97.50
2022-10-11T23:33:59.564Z,97.54
2022-10-11T23:36:26.266Z,97.69
2022-10-11T23:38:56.075Z,97.90
2022-10-11T23:41:24.140Z,98.48
2022-10-11T23:43:50.775Z,98.69
2022-10-11T23:46:17.482Z,98.88
2022-10-11T23:48:44.038Z,99.87
2022-10-11T23:51:10.803Z,100.00
2022-10-11T23:53:37.630Z,100.00
2022-10-11T23:56:06.416Z,99.85
2022-10-11T23:58:33.102Z,99.53
